Wetterdaten: Woche 07.03.16 - 13.03.16 (KW10)
Datum Zeit Temp. A. Feuchte A. Luftdruck Regen Wind Richtung Taupunkt Windchill Windben
07.03.2016 00:00 5,7 C 62 % 1003,0 hPa 0,0 l/m 2,1 km/h N -1,0 C 5,7 C 9,7 km/h
07.03.2016 01:00 5,5 C 62 % 1003,8 hPa 0,0 l/m 1,3 km/h N -1,1 C 5,5 C 8,4 km/h
07.03.2016 02:00 5,2 C 66 % 1003,8 hPa 0,0 l/m 2,6 km/h N -0,8 C 5,2 C 9,3 km/h
07.03.2016 03:00 4,6 C 70 % 1004,0 hPa 0,3 l/m 2,1 km/h N -0,5 C 4,6 C 8,9 km/h
07.03.2016 04:00 3,7 C 76 % 1004,1 hPa 0,0 l/m 3,5 km/h N -0,1 C 3,7 C 10,2 km/h
07.03.2016 05:00 3,5 C 77 % 1003,6 hPa 0,0 l/m 1,6 km/h N -0,1 C 3,5 C 7,2 km/h
07.03.2016 06:00 3,6 C 77 % 1003,9 hPa 0,0 l/m 0,7 km/h N -0,1 C 3,6 C 5,6 km/h
07.03.2016 07:00 3,6 C 77 % 1004,2 hPa 0,0 l/m 4,5 km/h N -0,1 C 3,6 C 12,9 km/h
07.03.2016 08:00 3,2 C 80 % 1004,7 hPa 0,0 l/m 5,7 km/h N 0,1 C 3,2 C 16,1 km/h
07.03.2016 09:00 3,2 C 83 % 1004,6 hPa 0,3 l/m 6,1 km/h N 0,5 C 3,0 C 14,1 km/h
07.03.2016 10:00 3,7 C 82 % 1004,7 hPa 0,0 l/m 6,3 km/h N 0,9 C 3,7 C 14,9 km/h
07.03.2016 11:00 3,6 C 81 % 1005,0 hPa 0,8 l/m 5,7 km/h N 0,7 C 3,6 C 16,1 km/h
07.03.2016 12:00 3,2 C 83 % 1004,8 hPa 0,3 l/m 6,1 km/h N 0,6 C 3,0 C 14,5 km/h
07.03.2016 13:00 3,5 C 83 % 1004,4 hPa 0,0 l/m 5,4 km/h N 0,9 C 3,5 C 12,1 km/h
07.03.2016 14:00 4,3 C 82 % 1004,2 hPa 0,0 l/m 6,1 km/h N 1,5 C 4,3 C 14,1 km/h
07.03.2016 15:00 4,7 C 81 % 1004,2 hPa 0,0 l/m 5,3 km/h N 1,7 C 4,7 C 12,5 km/h
07.03.2016 16:00 5,2 C 78 % 1004,3 hPa 0,0 l/m 5,6 km/h N 1,6 C 5,2 C 13,7 km/h
07.03.2016 17:00 4,9 C 77 % 1004,7 hPa 0,0 l/m 2,8 km/h N 1,2 C 4,9 C 10,1 km/h
07.03.2016 18:00 4,5 C 78 % 1005,0 hPa 0,0 l/m 3,8 km/h N 1,0 C 4,5 C 9,7 km/h
07.03.2016 19:00 3,9 C 80 % 1005,1 hPa 0,0 l/m 1,3 km/h N 0,8 C 3,9 C 5,6 km/h
07.03.2016 20:00 3,5 C 82 % 1005,3 hPa 0,0 l/m 0,8 km/h N 0,7 C 3,5 C 4,4 km/h
07.03.2016 21:00 3,5 C 82 % 1005,6 hPa 0,0 l/m 1,6 km/h N 0,7 C 3,5 C 6,4 km/h
07.03.2016 22:00 3,5 C 82 % 1005,7 hPa 0,0 l/m 1,3 km/h N 0,7 C 3,5 C 8,1 km/h
07.03.2016 23:00 3,6 C 81 % 1005,9 hPa 0,0 l/m 2,9 km/h N 0,6 C 3,6 C 7,6 km/h
08.03.2016 00:00 3,5 C 82 % 1006,1 hPa 0,0 l/m 1,6 km/h N 0,7 C 3,5 C 6,8 km/h
08.03.2016 01:00 3,1 C 83 % 1006,4 hPa 0,3 l/m 3,8 km/h N 0,5 C 3,1 C 10,5 km/h
08.03.2016 02:00 2,8 C 83 % 1006,4 hPa 0,0 l/m 2,9 km/h N 0,2 C 2,8 C 9,7 km/h
08.03.2016 03:00 2,8 C 84 % 1006,5 hPa 0,0 l/m 2,5 km/h N 0,3 C 2,8 C 8,5 km/h
08.03.2016 04:00 2,7 C 84 % 1006,8 hPa 0,3 l/m 1,9 km/h N 0,2 C 2,7 C 7,6 km/h
08.03.2016 05:00 2,4 C 84 % 1007,3 hPa 0,3 l/m 0,5 km/h N -0,0 C 2,4 C 6,0 km/h
08.03.2016 06:00 2,4 C 84 % 1008,0 hPa 0,0 l/m 0,2 km/h N -0,0 C 2,4 C 3,2 km/h
08.03.2016 07:00 2,8 C 84 % 1008,8 hPa 0,0 l/m 3,8 km/h N 0,3 C 2,8 C 9,3 km/h
08.03.2016 08:00 3,3 C 83 % 1009,3 hPa 0,0 l/m 4,7 km/h N 0,7 C 3,3 C 11,3 km/h
08.03.2016 09:00 3,9 C 82 % 1010,0 hPa 0,0 l/m 6,5 km/h N 1,1 C 3,5 C 17,7 km/h
08.03.2016 10:00 4,3 C 80 % 1010,6 hPa 0,0 l/m 8,6 km/h N 1,1 C 2,4 C 18,1 km/h
08.03.2016 11:00 4,8 C 78 % 1011,2 hPa 0,0 l/m 6,8 km/h N 1,2 C 4,5 C 15,7 km/h
08.03.2016 12:00 5,1 C 77 % 1011,6 hPa 0,0 l/m 7,8 km/h N 1,4 C 3,9 C 19,3 km/h
08.03.2016 13:00 6,2 C 74 % 1011,8 hPa 0,0 l/m 7,8 km/h N 1,8 C 5,0 C 18,1 km/h
08.03.2016 14:00 6,7 C 70 % 1012,2 hPa 0,0 l/m 7,6 km/h N 1,5 C 5,7 C 18,9 km/h
08.03.2016 15:00 6,3 C 72 % 1012,8 hPa 0,0 l/m 6,3 km/h N 1,5 C 5,9 C 16,5 km/h
08.03.2016 16:00 6,0 C 72 % 1013,3 hPa 0,0 l/m 5,2 km/h N 1,3 C 6,0 C 14,5 km/h
08.03.2016 17:00 5,8 C 73 % 1014,1 hPa 0,0 l/m 5,8 km/h N 1,3 C 5,8 C 16,1 km/h
08.03.2016 18:00 5,1 C 76 % 1014,8 hPa 0,0 l/m 5,8 km/h N 1,1 C 5,0 C 14,9 km/h
08.03.2016 19:00 4,5 C 78 % 1015,8 hPa 0,0 l/m 2,6 km/h N 1,1 C 4,5 C 7,6 km/h
08.03.2016 20:00 4,0 C 80 % 1016,4 hPa 0,0 l/m 3,1 km/h N 0,9 C 4,0 C 8,9 km/h
08.03.2016 21:00 3,4 C 81 % 1016,8 hPa 0,0 l/m 2,4 km/h N 0,4 C 3,4 C 8,4 km/h
08.03.2016 22:00 2,7 C 81 % 1017,2 hPa 0,0 l/m 1,5 km/h N -0,3 C 2,7 C 6,8 km/h
08.03.2016 23:00 2,2 C 81 % 1017,2 hPa 0,0 l/m 1,8 km/h N -0,7 C 2,2 C 8,4 km/h
09.03.2016 00:00 1,3 C 81 % 1017,3 hPa 0,0 l/m 0,3 km/h N -1,7 C 1,3 C 2,4 km/h
09.03.2016 01:00 0,6 C 82 % 1017,5 hPa 0,0 l/m 0,1 km/h N -2,0 C 0,6 C 2,0 km/h
09.03.2016 02:00 0,5 C 83 % 1017,3 hPa 0,0 l/m 0,3 km/h N -2,0 C 0,5 C 3,6 km/h
09.03.2016 03:00 0,6 C 83 % 1016,9 hPa 0,0 l/m 1,1 km/h N -2,0 C 0,6 C 6,0 km/h
09.03.2016 04:00 -0,1 C 83 % 1016,8 hPa 0,0 l/m 0,0 km/h N -2,6 C -0,1 C 1,2 km/h
09.03.2016 05:00 -0,2 C 84 % 1016,5 hPa 0,0 l/m 0,8 km/h N -2,6 C -0,2 C 4,0 km/h
09.03.2016 06:00 0,1 C 84 % 1016,4 hPa 0,0 l/m 1,5 km/h N -2,3 C 0,1 C 6,4 km/h
09.03.2016 07:00 0,5 C 84 % 1016,5 hPa 0,0 l/m 3,7 km/h N -1,9 C 0,5 C 10,1 km/h
09.03.2016 08:00 1,5 C 82 % 1016,4 hPa 0,0 l/m 5,6 km/h N -1,3 C 1,5 C 14,1 km/h
09.03.2016 09:00 2,1 C 79 % 1016,1 hPa 0,0 l/m 4,3 km/h N -1,2 C 2,1 C 11,7 km/h
09.03.2016 10:00 3,3 C 76 % 1015,2 hPa 0,0 l/m 3,4 km/h N -0,5 C 3,3 C 10,9 km/h
09.03.2016 11:00 5,0 C 71 % 1014,4 hPa 0,0 l/m 2,3 km/h N 0,3 C 5,0 C 10,9 km/h
09.03.2016 12:00 6,6 C 68 % 1013,4 hPa 0,0 l/m 1,8 km/h N 1,0 C 6,6 C 9,7 km/h
09.03.2016 13:00 7,2 C 67 % 1012,6 hPa 0,0 l/m 1,7 km/h N 1,4 C 7,2 C 8,9 km/h
09.03.2016 14:00 7,2 C 69 % 1012,0 hPa 0,0 l/m 0,6 km/h N 1,8 C 7,2 C 6,8 km/h
09.03.2016 15:00 7,0 C 70 % 1011,5 hPa 0,0 l/m 0,5 km/h N 1,8 C 7,0 C 6,8 km/h
09.03.2016 16:00 6,8 C 71 % 1010,9 hPa 0,0 l/m 0,3 km/h N 2,0 C 6,8 C 4,4 km/h
09.03.2016 17:00 5,9 C 74 % 1010,7 hPa 0,0 l/m 0,1 km/h N 1,5 C 5,9 C 1,6 km/h
09.03.2016 18:00 4,8 C 76 % 1010,7 hPa 0,0 l/m 0,0 km/h N 0,9 C 4,8 C 0,8 km/h
09.03.2016 19:00 3,1 C 77 % 1010,8 hPa 0,0 l/m 0,0 km/h N -0,6 C 3,1 C 0,0 km/h
09.03.2016 20:00 1,4 C 79 % 1010,8 hPa 0,0 l/m 0,0 km/h N -1,7 C 1,4 C 0,0 km/h
09.03.2016 21:00 0,3 C 81 % 1010,8 hPa 0,0 l/m 0,0 km/h N -2,6 C 0,3 C 0,0 km/h
09.03.2016 22:00 -0,4 C 83 % 1010,6 hPa 0,0 l/m 0,0 km/h N -3,1 C -0,4 C 0,0 km/h
09.03.2016 23:00 -1,0 C 84 % 1010,6 hPa 0,0 l/m 0,0 km/h N -3,4 C -1,0 C 0,0 km/h
10.03.2016 00:00 -1,3 C 84 % 1010,5 hPa 0,0 l/m 0,0 km/h N -3,7 C -1,3 C 0,0 km/h
10.03.2016 01:00 -1,7 C 84 % 1010,9 hPa 0,0 l/m 0,0 km/h N -4,1 C -1,7 C 0,0 km/h
10.03.2016 02:00 -2,0 C 84 % 1010,9 hPa 0,0 l/m 0,0 km/h N -4,3 C -2,0 C 0,0 km/h
10.03.2016 03:00 -2,2 C 84 % 1011,1 hPa 0,0 l/m 0,0 km/h N -4,5 C -2,2 C 0,0 km/h
10.03.2016 04:00 -2,3 C 84 % 1011,4 hPa 0,0 l/m 0,0 km/h N -4,7 C -2,3 C 0,0 km/h
10.03.2016 05:00 -2,6 C 84 % 1012,0 hPa 0,0 l/m 0,0 km/h N -4,9 C -2,6 C 0,0 km/h
10.03.2016 06:00 -2,4 C 84 % 1012,8 hPa 0,0 l/m 0,0 km/h N -4,7 C -2,4 C 0,0 km/h
10.03.2016 07:00 -1,7 C 84 % 1013,5 hPa 0,0 l/m 0,0 km/h N -4,1 C -1,7 C 0,8 km/h
10.03.2016 08:00 1,8 C 82 % 1013,7 hPa 0,0 l/m 0,0 km/h N -0,9 C 1,8 C 0,0 km/h
10.03.2016 09:00 4,9 C 83 % 1014,0 hPa 0,0 l/m 3,8 km/h N 2,2 C 4,9 C 12,1 km/h
10.03.2016 10:00 6,5 C 78 % 1014,3 hPa 0,0 l/m 8,3 km/h N 3,0 C 5,0 C 18,9 km/h
10.03.2016 11:00 5,8 C 77 % 1014,6 hPa 0,0 l/m 11,3 km/h N 2,1 C 2,0 C 24,5 km/h
10.03.2016 12:00 5,4 C 79 % 1014,6 hPa 0,0 l/m 13,6 km/h N 2,1 C 0,3 C 27,8 km/h
10.03.2016 13:00 5,9 C 79 % 1014,5 hPa 0,0 l/m 11,7 km/h N 2,6 C 2,0 C 24,9 km/h
10.03.2016 14:00 7,0 C 77 % 1014,5 hPa 0,0 l/m 10,2 km/h N 3,2 C 4,2 C 20,9 km/h
10.03.2016 15:00 8,2 C 76 % 1014,6 hPa 0,0 l/m 9,1 km/h N 4,2 C 6,1 C 20,5 km/h
10.03.2016 16:00 9,0 C 74 % 1014,7 hPa 0,0 l/m 8,1 km/h N 4,6 C 7,7 C 17,3 km/h
10.03.2016 17:00 8,7 C 76 % 1014,9 hPa 0,0 l/m 7,1 km/h N 4,6 C 8,1 C 17,7 km/h
10.03.2016 18:00 7,8 C 78 % 1015,6 hPa 0,0 l/m 5,7 km/h N 4,2 C 7,8 C 14,9 km/h
10.03.2016 19:00 6,9 C 77 % 1016,4 hPa 0,0 l/m 6,1 km/h N 3,2 C 6,7 C 19,7 km/h
10.03.2016 20:00 7,1 C 77 % 1016,9 hPa 0,0 l/m 7,5 km/h N 3,3 C 6,3 C 17,3 km/h
10.03.2016 21:00 7,3 C 76 % 1017,2 hPa 0,0 l/m 7,8 km/h N 3,3 C 6,1 C 18,1 km/h
10.03.2016 22:00 7,2 C 77 % 1017,3 hPa 0,0 l/m 8,5 km/h N 3,4 C 5,5 C 22,5 km/h
10.03.2016 23:00 7,1 C 77 % 1017,4 hPa 0,0 l/m 9,8 km/h N 3,4 C 4,6 C 24,1 km/h
11.03.2016 00:00 6,9 C 77 % 1017,6 hPa 0,0 l/m 9,3 km/h N 3,1 C 4,7 C 22,5 km/h
11.03.2016 01:00 6,6 C 78 % 1017,9 hPa 0,0 l/m 8,6 km/h N 3,0 C 4,9 C 22,9 km/h
11.03.2016 02:00 6,2 C 80 % 1017,8 hPa 0,0 l/m 10,1 km/h N 2,9 C 3,3 C 22,5 km/h
11.03.2016 03:00 6,2 C 79 % 1018,0 hPa 0,0 l/m 9,8 km/h N 2,7 C 3,6 C 22,1 km/h
11.03.2016 04:00 6,0 C 79 % 1018,2 hPa 0,0 l/m 9,6 km/h N 2,6 C 3,5 C 23,3 km/h
11.03.2016 05:00 5,8 C 80 % 1018,4 hPa 0,0 l/m 11,1 km/h N 2,6 C 2,3 C 28,6 km/h
11.03.2016 06:00 5,7 C 79 % 1018,9 hPa 0,0 l/m 11,2 km/h N 2,4 C 2,1 C 27,0 km/h
11.03.2016 07:00 5,4 C 80 % 1019,5 hPa 0,0 l/m 9,4 km/h N 2,2 C 3,0 C 21,7 km/h
11.03.2016 08:00 5,5 C 80 % 1020,0 hPa 0,0 l/m 11,2 km/h N 2,2 C 1,8 C 26,1 km/h
11.03.2016 09:00 5,5 C 79 % 1020,5 hPa 0,0 l/m 9,4 km/h N 2,2 C 3,1 C 21,3 km/h
11.03.2016 10:00 5,6 C 79 % 1020,6 hPa 0,0 l/m 10,1 km/h N 2,2 C 2,8 C 24,9 km/h
11.03.2016 11:00 6,0 C 78 % 1020,5 hPa 0,0 l/m 12,1 km/h N 2,5 C 1,9 C 25,7 km/h
11.03.2016 12:00 6,5 C 78 % 1020,3 hPa 0,0 l/m 13,8 km/h N 2,9 C 1,5 C 28,6 km/h
11.03.2016 13:00 6,7 C 77 % 1020,2 hPa 0,0 l/m 14,6 km/h N 3,0 C 1,4 C 29,0 km/h
11.03.2016 14:00 6,9 C 76 % 1020,2 hPa 0,0 l/m 14,0 km/h N 3,0 C 1,9 C 31,4 km/h
11.03.2016 15:00 6,8 C 76 % 1020,4 hPa 0,0 l/m 13,5 km/h N 2,9 C 2,0 C 29,8 km/h
11.03.2016 16:00 6,5 C 78 % 1020,6 hPa 0,0 l/m 12,5 km/h N 2,9 C 2,2 C 29,4 km/h
11.03.2016 17:00 6,3 C 79 % 1021,2 hPa 0,0 l/m 11,8 km/h N 3,0 C 2,4 C 25,4 km/h
11.03.2016 18:00 6,1 C 80 % 1021,6 hPa 0,0 l/m 11,9 km/h N 2,9 C 2,1 C 26,5 km/h
11.03.2016 19:00 6,0 C 81 % 1022,3 hPa 0,0 l/m 10,0 km/h N 2,9 C 3,1 C 23,7 km/h
11.03.2016 20:00 5,9 C 81 % 1022,7 hPa 0,0 l/m 10,4 km/h N 2,9 C 2,8 C 24,1 km/h
11.03.2016 21:00 5,8 C 81 % 1023,1 hPa 0,0 l/m 9,0 km/h N 2,8 C 3,7 C 20,9 km/h
11.03.2016 22:00 5,7 C 81 % 1023,2 hPa 0,0 l/m 9,3 km/h N 2,6 C 3,3 C 21,7 km/h
11.03.2016 23:00 5,6 C 80 % 1023,4 hPa 0,0 l/m 7,4 km/h N 2,4 C 4,8 C 20,1 km/h
12.03.2016 00:00 5,6 C 79 % 1023,6 hPa 0,0 l/m 8,8 km/h N 2,1 C 3,6 C 21,7 km/h
12.03.2016 01:00 5,4 C 79 % 1023,8 hPa 0,0 l/m 6,9 km/h N 2,0 C 4,8 C 16,5 km/h
12.03.2016 02:00 5,2 C 79 % 1023,8 hPa 0,0 l/m 6,8 km/h N 1,9 C 4,7 C 16,9 km/h
12.03.2016 03:00 5,1 C 79 % 1023,6 hPa 0,0 l/m 6,8 km/h N 1,7 C 4,7 C 18,1 km/h
12.03.2016 04:00 4,9 C 79 % 1023,8 hPa 0,0 l/m 6,4 km/h N 1,6 C 4,8 C 16,1 km/h
12.03.2016 05:00 4,9 C 79 % 1023,9 hPa 0,0 l/m 6,1 km/h N 1,6 C 4,9 C 17,7 km/h
12.03.2016 06:00 4,9 C 79 % 1024,2 hPa 0,0 l/m 6,5 km/h N 1,4 C 4,5 C 17,3 km/h
12.03.2016 07:00 4,9 C 78 % 1024,7 hPa 0,0 l/m 5,8 km/h N 1,4 C 4,9 C 14,9 km/h
12.03.2016 08:00 5,2 C 78 % 1025,0 hPa 0,0 l/m 7,7 km/h N 1,6 C 4,1 C 17,7 km/h
12.03.2016 09:00 5,3 C 77 % 1025,3 hPa 0,0 l/m 7,0 km/h N 1,6 C 4,7 C 18,9 km/h
12.03.2016 10:00 5,4 C 77 % 1025,1 hPa 0,0 l/m 8,3 km/h N 1,6 C 3,8 C 19,7 km/h
12.03.2016 11:00 5,8 C 76 % 1024,9 hPa 0,0 l/m 9,6 km/h N 1,8 C 3,3 C 21,7 km/h
12.03.2016 12:00 6,5 C 75 % 1024,7 hPa 0,0 l/m 10,0 km/h N 2,4 C 3,7 C 21,3 km/h
12.03.2016 13:00 7,1 C 74 % 1024,2 hPa 0,0 l/m 9,1 km/h N 2,7 C 5,0 C 20,1 km/h
12.03.2016 14:00 7,1 C 74 % 1024,0 hPa 0,0 l/m 8,6 km/h N 2,8 C 5,4 C 22,5 km/h
12.03.2016 15:00 7,1 C 75 % 1023,7 hPa 0,0 l/m 10,0 km/h N 2,9 C 4,4 C 21,3 km/h
12.03.2016 16:00 6,8 C 76 % 1024,0 hPa 0,0 l/m 8,3 km/h N 2,8 C 5,3 C 19,3 km/h
12.03.2016 17:00 6,5 C 78 % 1024,1 hPa 0,0 l/m 8,5 km/h N 2,9 C 4,8 C 19,7 km/h
12.03.2016 18:00 6,4 C 79 % 1024,7 hPa 0,0 l/m 6,0 km/h N 3,0 C 6,2 C 14,5 km/h
12.03.2016 19:00 6,3 C 79 % 1025,3 hPa 0,0 l/m 5,6 km/h N 2,9 C 5,7 C 14,9 km/h
12.03.2016 20:00 6,0 C 77 % 1025,9 hPa 0,0 l/m 3,8 km/h N 2,3 C 6,0 C 14,5 km/h
12.03.2016 21:00 5,4 C 76 % 1026,1 hPa 0,0 l/m 6,7 km/h N 1,5 C 5,0 C 16,1 km/h
12.03.2016 22:00 5,1 C 77 % 1026,3 hPa 0,0 l/m 5,9 km/h N 1,3 C 4,7 C 17,3 km/h
12.03.2016 23:00 4,9 C 77 % 1026,3 hPa 0,0 l/m 7,2 km/h N 1,2 C 4,1 C 19,3 km/h
13.03.2016 00:00 4,8 C 78 % 1026,2 hPa 0,0 l/m 5,1 km/h N 1,2 C 4,8 C 14,1 km/h
13.03.2016 01:00 4,7 C 78 % 1026,3 hPa 0,0 l/m 4,2 km/h N 1,2 C 4,7 C 13,3 km/h
13.03.2016 02:00 4,8 C 79 % 1026,0 hPa 0,0 l/m 4,9 km/h N 1,4 C 4,8 C 14,1 km/h
13.03.2016 03:00 4,8 C 79 % 1026,0 hPa 0,0 l/m 5,6 km/h N 1,5 C 4,8 C 14,9 km/h
13.03.2016 04:00 4,8 C 80 % 1026,1 hPa 0,0 l/m 4,7 km/h N 1,6 C 4,8 C 15,3 km/h
13.03.2016 05:00 4,8 C 80 % 1026,4 hPa 0,0 l/m 4,8 km/h N 1,6 C 4,8 C 16,1 km/h
13.03.2016 06:00 4,9 C 80 % 1026,6 hPa 0,0 l/m 5,0 km/h N 1,7 C 4,9 C 14,9 km/h
13.03.2016 07:00 5,0 C 80 % 1027,1 hPa 0,0 l/m 4,6 km/h N 1,8 C 5,0 C 13,7 km/h
13.03.2016 08:00 5,3 C 81 % 1027,4 hPa 0,0 l/m 5,6 km/h N 2,2 C 5,1 C 16,5 km/h
13.03.2016 09:00 5,7 C 80 % 1027,8 hPa 0,0 l/m 5,8 km/h N 2,4 C 5,5 C 18,5 km/h
13.03.2016 10:00 5,8 C 79 % 1027,9 hPa 0,0 l/m 6,9 km/h N 2,5 C 5,2 C 20,1 km/h
13.03.2016 11:00 6,0 C 79 % 1028,0 hPa 0,0 l/m 6,3 km/h N 2,6 C 5,9 C 17,3 km/h
13.03.2016 12:00 6,1 C 79 % 1027,9 hPa 0,0 l/m 6,8 km/h N 2,7 C 5,8 C 17,3 km/h
13.03.2016 13:00 6,3 C 78 % 1027,7 hPa 0,0 l/m 6,7 km/h N 2,7 C 5,9 C 17,3 km/h
13.03.2016 14:00 6,1 C 78 % 1027,6 hPa 0,0 l/m 7,3 km/h N 2,6 C 5,4 C 18,1 km/h
13.03.2016 15:00 5,9 C 79 % 1027,6 hPa 0,0 l/m 5,8 km/h N 2,5 C 5,7 C 17,3 km/h
13.03.2016 16:00 5,6 C 79 % 1027,7 hPa 0,0 l/m 7,0 km/h N 2,3 C 4,9 C 16,5 km/h
13.03.2016 17:00 5,6 C 79 % 1027,9 hPa 0,0 l/m 6,4 km/h N 2,3 C 5,6 C 18,5 km/h
13.03.2016 18:00 5,5 C 79 % 1028,3 hPa 0,0 l/m 6,4 km/h N 2,1 C 5,5 C 18,5 km/h
13.03.2016 19:00 5,4 C 77 % 1028,7 hPa 0,0 l/m 6,4 km/h N 1,7 C 5,5 C 20,1 km/h
13.03.2016 20:00 5,3 C 75 % 1029,1 hPa 0,0 l/m 6,4 km/h N 1,2 C 5,3 C 20,1 km/h
13.03.2016 21:00 5,0 C 75 % 1029,4 hPa 0,0 l/m 6,4 km/h N 0,9 C 5,0 C 19,3 km/h
13.03.2016 22:00 4,7 C 75 % 1029,7 hPa 0,0 l/m 6,4 km/h N 0,7 C 4,7 C 19,3 km/h
13.03.2016 23:00 4,4 C 75 % 1029,8 hPa 0,0 l/m 6,4 km/h N 0,3 C 3,6 C 18,5 km/h
Min-Datum _ 10.03.16 07.03.16 07.03.16 - 07.03.16 - 10.03.16 10.03.16 07.03.16
_ Min-Zeit 05:15 00:00 00:00 - 03:15 - 05:00 05:00 20:15
Minimum _ -2,6 C 62 % 1002,9 hPa - 0,0 km/h - -4,9 C -2,6 C 0,0 km/h
Max-Datum _ 10.03.16 07.03.16 13.03.16 07.03.16 11.03.16 - 10.03.16 10.03.16 11.03.16
_ Max-Zeit 16:45 13:30 23:30 11:15 14:15 - 16:45 17:15 14:15
Maximum _ 9,1 C 84 % 1029,8 hPa 0,8 l/m 16,4 km/h
N
- 4,7 C 8,8 C 35,4 km/h
N
Durchschnitt _ 4,5 C 78 % 1016,6 hPa #2,3 l/m 5,5 km/h N 1,1 C 3,7 C 14,3 km/h